createdAt,value
2022-12-05T00:01:16.457Z,102033.47
2022-12-05T00:03:45.010Z,102037.59
2022-12-05T00:06:12.998Z,102034.25
2022-12-05T00:08:42.460Z,102003.63
2022-12-05T00:11:14.677Z,102025.09
2022-12-05T00:13:43.601Z,102019.84
2022-12-05T00:16:13.601Z,102015.66
2022-12-05T00:18:42.299Z,102019.91
2022-12-05T00:21:18.175Z,102013.91
2022-12-05T00:23:47.781Z,101998.69
2022-12-05T00:26:16.194Z,102019.91
2022-12-05T00:28:44.723Z,102030.97
2022-12-05T00:31:14.901Z,102032.63
2022-12-05T00:33:43.345Z,102030.00
2022-12-05T00:36:14.020Z,102044.41
2022-12-05T00:38:42.276Z,102041.72
2022-12-05T00:41:13.804Z,102045.00
2022-12-05T00:43:42.491Z,102044.16
2022-12-05T00:46:12.304Z,102045.72
2022-12-05T00:48:41.013Z,102040.50
2022-12-05T00:51:11.518Z,102044.94
2022-12-05T00:53:40.073Z,102042.31
2022-12-05T00:56:12.172Z,102039.00
2022-12-05T00:58:40.757Z,102042.22
2022-12-05T01:01:10.371Z,102049.88
2022-12-05T01:03:38.897Z,102049.91
2022-12-05T01:06:07.389Z,102046.41
2022-12-05T01:08:36.389Z,102044.63
2022-12-05T01:11:05.843Z,102052.34
2022-12-05T01:13:35.515Z,102040.19
2022-12-05T01:16:03.775Z,102055.78
2022-12-05T01:18:32.079Z,102045.34
2022-12-05T01:21:00.184Z,102038.06
2022-12-05T01:23:28.201Z,102039.75
2022-12-05T01:25:56.157Z,102027.91
2022-12-05T01:28:24.189Z,102018.47
2022-12-05T01:30:53.513Z,102023.00
2022-12-05T01:33:21.492Z,102016.88
2022-12-05T01:35:49.610Z,102012.63
2022-12-05T01:38:17.642Z,102010.81
2022-12-05T01:40:45.575Z,102008.31
2022-12-05T01:43:17.561Z,102009.16
2022-12-05T01:45:47.487Z,102002.41
2022-12-05T01:48:20.997Z,101996.66
2022-12-05T01:50:50.141Z,101990.88
2022-12-05T01:53:19.394Z,101991.84
2022-12-05T01:55:49.499Z,101987.47
2022-12-05T01:58:18.157Z,101987.38
2022-12-05T02:00:46.924Z,101991.97
2022-12-05T02:03:20.519Z,101983.38
2022-12-05T02:05:52.184Z,101991.97
2022-12-05T02:08:20.881Z,101963.16
2022-12-05T02:10:50.831Z,101986.75
2022-12-05T02:13:33.041Z,101990.06
2022-12-05T02:16:04.728Z,101980.88
2022-12-05T02:18:46.865Z,101989.34
2022-12-05T02:21:34.922Z,101982.53
2022-12-05T02:24:36.670Z,101986.84
2022-12-05T02:27:21.617Z,101985.91
2022-12-05T02:30:06.975Z,101986.84
2022-12-05T02:32:51.624Z,101977.50
2022-12-05T02:35:26.008Z,101985.97
2022-12-05T02:37:57.449Z,101990.25
2022-12-05T02:40:28.872Z,101973.50
2022-12-05T02:43:01.741Z,101980.13
2022-12-05T02:45:34.428Z,101977.63
2022-12-05T02:48:03.089Z,101989.38
2022-12-05T02:50:34.847Z,101989.34
2022-12-05T02:53:08.176Z,101986.75
2022-12-05T02:55:36.885Z,101987.47
2022-12-05T02:58:10.025Z,101978.91
2022-12-05T03:00:41.817Z,101986.63
2022-12-05T03:03:16.473Z,101994.31
2022-12-05T03:05:52.026Z,101989.28
2022-12-05T03:08:24.608Z,101987.63
2022-12-05T03:10:54.330Z,101984.34
2022-12-05T03:13:28.356Z,101993.69
2022-12-05T03:16:02.633Z,101983.50
2022-12-05T03:18:33.864Z,101975.81
2022-12-05T03:21:06.066Z,101977.75
2022-12-05T03:23:39.279Z,101984.59
2022-12-05T03:26:17.826Z,101981.16
2022-12-05T03:28:56.877Z,101993.16
2022-12-05T03:31:36.878Z,101976.09
2022-12-05T03:34:08.277Z,101966.56
2022-12-05T03:36:41.037Z,101985.44
2022-12-05T03:39:16.488Z,101982.84
2022-12-05T03:41:54.044Z,101980.31
2022-12-05T03:44:29.552Z,101974.41
2022-12-05T03:47:04.476Z,101965.91
2022-12-05T03:49:38.373Z,101970.97
2022-12-05T03:52:12.247Z,101974.47
2022-12-05T03:54:44.199Z,101967.63
2022-12-05T03:57:16.576Z,101972.78
2022-12-05T03:59:51.336Z,101969.25
2022-12-05T04:02:27.296Z,101982.03
2022-12-05T04:05:02.099Z,101966.66
2022-12-05T04:07:33.308Z,101979.25
2022-12-05T04:10:05.034Z,101954.63
2022-12-05T04:12:36.325Z,101984.59
2022-12-05T04:15:09.622Z,101977.75
2022-12-05T04:17:50.497Z,101980.31
2022-12-05T04:20:43.116Z,101972.66
2022-12-05T04:23:11.580Z,101967.63
2022-12-05T04:25:51.081Z,101976.09
2022-12-05T04:28:28.022Z,101972.59
2022-12-05T04:31:04.970Z,101981.16
2022-12-05T04:33:41.761Z,101986.28
2022-12-05T04:36:16.672Z,101975.94
2022-12-05T04:38:49.945Z,101984.66
2022-12-05T04:41:23.617Z,101982.97
2022-12-05T04:43:53.537Z,101985.47
2022-12-05T04:46:23.901Z,101997.41
2022-12-05T04:48:59.675Z,101972.47
2022-12-05T04:51:31.701Z,101969.06
2022-12-05T04:54:05.952Z,101975.81
2022-12-05T04:56:37.953Z,101978.41
2022-12-05T04:59:06.392Z,101997.25
2022-12-05T05:01:40.160Z,101993.97
2022-12-05T05:04:14.224Z,101993.91
2022-12-05T05:06:42.613Z,102001.63
2022-12-05T05:09:11.825Z,101995.63
2022-12-05T05:11:39.880Z,101992.28
2022-12-05T05:14:07.876Z,101995.72
2022-12-05T05:16:38.390Z,102001.88
2022-12-05T05:19:07.929Z,101999.06
2022-12-05T05:21:39.199Z,101999.06
2022-12-05T05:24:09.515Z,101999.16
2022-12-05T05:26:39.483Z,101994.03
2022-12-05T05:29:08.044Z,101995.78
2022-12-05T05:31:37.032Z,102001.88
2022-12-05T05:34:09.378Z,101999.31
2022-12-05T05:36:40.073Z,102000.19
2022-12-05T05:39:13.184Z,101999.31
2022-12-05T05:41:41.158Z,101995.91
2022-12-05T05:44:09.131Z,101995.94
2022-12-05T05:46:37.295Z,102003.59
2022-12-05T05:49:06.224Z,101993.41
2022-12-05T05:51:34.259Z,101999.25
2022-12-05T05:54:03.592Z,101984.75
2022-12-05T05:56:31.557Z,101988.19
2022-12-05T05:59:00.873Z,101998.38
2022-12-05T06:01:30.055Z,101996.75
2022-12-05T06:03:58.578Z,101974.56
2022-12-05T06:06:26.762Z,101981.41
2022-12-05T06:08:55.142Z,101996.75
2022-12-05T06:11:27.122Z,101986.56
2022-12-05T06:13:56.393Z,101990.84
2022-12-05T06:16:24.841Z,101989.97
2022-12-05T06:18:53.659Z,101985.69
2022-12-05T06:21:22.323Z,101970.31
2022-12-05T06:23:50.425Z,101988.19
2022-12-05T06:26:20.507Z,101997.50
2022-12-05T06:28:50.448Z,101994.06
2022-12-05T06:31:21.160Z,102003.44
2022-12-05T06:33:49.757Z,102005.13
2022-12-05T06:36:20.893Z,101995.91
2022-12-05T06:38:49.348Z,102000.97
2022-12-05T06:41:20.969Z,102012.94
2022-12-05T06:43:50.273Z,102003.53
2022-12-05T06:46:18.232Z,102005.22
2022-12-05T06:48:46.200Z,102003.59
2022-12-05T06:51:16.448Z,102012.06
2022-12-05T06:53:44.678Z,102011.03
2022-12-05T06:56:15.278Z,102013.44
2022-12-05T06:58:43.539Z,102020.38
2022-12-05T07:01:31.989Z,102016.09
2022-12-05T07:04:00.244Z,102026.28
2022-12-05T07:06:28.701Z,102015.19
2022-12-05T07:08:56.695Z,102018.47
2022-12-05T07:11:24.637Z,102026.19
2022-12-05T07:13:52.667Z,102026.97
2022-12-05T07:16:22.145Z,102022.75
2022-12-05T07:18:50.453Z,102031.22
2022-12-05T07:21:18.799Z,102026.09
2022-12-05T07:23:48.143Z,102030.25
2022-12-05T07:26:19.029Z,102039.00
2022-12-05T07:28:47.616Z,102032.91
2022-12-05T07:31:18.916Z,102023.38
2022-12-05T07:33:48.253Z,102043.88
2022-12-05T07:36:18.121Z,102040.41
2022-12-05T07:38:46.436Z,102040.53
2022-12-05T07:41:19.076Z,102031.13
2022-12-05T07:43:47.079Z,102032.75
2022-12-05T07:46:15.569Z,102031.72
2022-12-05T07:48:43.612Z,102042.13
2022-12-05T07:51:13.171Z,102037.06
2022-12-05T07:53:44.177Z,102042.13
2022-12-05T07:56:17.019Z,102045.56
2022-12-05T07:58:45.648Z,102046.28
2022-12-05T08:01:16.062Z,102050.34
2022-12-05T08:03:44.750Z,102053.75
2022-12-05T08:06:15.420Z,102047.78
2022-12-05T08:08:44.108Z,102062.31
2022-12-05T08:11:15.505Z,102059.78
2022-12-05T08:13:44.018Z,102053.50
2022-12-05T08:16:14.095Z,102062.09
2022-12-05T08:18:43.216Z,102066.34
2022-12-05T08:21:14.041Z,102068.81
2022-12-05T08:23:42.448Z,102061.25
2022-12-05T08:26:12.499Z,102062.81
2022-12-05T08:28:41.229Z,102060.34
2022-12-05T08:31:10.899Z,102054.28
2022-12-05T08:33:39.184Z,102054.28
2022-12-05T08:36:09.843Z,102050.22
2022-12-05T08:38:39.576Z,102056.22
2022-12-05T08:41:09.233Z,102052.72
2022-12-05T08:43:37.601Z,102052.78
2022-12-05T08:46:06.491Z,102047.00
2022-12-05T08:48:35.975Z,102052.03
2022-12-05T08:51:06.940Z,102051.09
2022-12-05T08:53:39.556Z,102043.34
2022-12-05T08:56:12.422Z,102047.50
2022-12-05T08:58:40.962Z,102047.66
2022-12-05T09:01:10.879Z,102029.59
2022-12-05T09:03:43.323Z,102045.22
2022-12-05T09:06:16.174Z,102040.78
2022-12-05T09:08:45.272Z,102038.78
2022-12-05T09:11:17.525Z,102041.50
2022-12-05T09:13:45.740Z,102036.28
2022-12-05T09:16:15.648Z,102032.00
2022-12-05T09:18:44.453Z,102032.88
2022-12-05T09:21:14.337Z,102034.56
2022-12-05T09:23:42.578Z,102018.31
2022-12-05T09:26:15.143Z,102020.91
2022-12-05T09:28:44.263Z,102010.63
2022-12-05T09:31:14.245Z,102014.03
2022-12-05T09:33:42.348Z,102007.25
2022-12-05T09:36:13.790Z,102000.97
2022-12-05T09:38:42.144Z,102001.88
2022-12-05T09:41:46.914Z,102001.81
2022-12-05T09:44:22.305Z,101982.91
2022-12-05T09:46:56.105Z,101989.78
2022-12-05T09:49:25.653Z,101983.81
2022-12-05T09:51:55.432Z,101976.25
2022-12-05T09:54:24.783Z,101972.97
2022-12-05T09:56:54.334Z,101962.63
2022-12-05T09:59:22.541Z,101953.91
2022-12-05T10:01:58.712Z,101950.22
2022-12-05T10:05:00.168Z,101952.84
2022-12-05T10:07:35.440Z,101948.59
2022-12-05T10:10:21.094Z,101961.38
2022-12-05T10:13:04.773Z,101961.22
2022-12-05T10:15:37.967Z,101958.63
2022-12-05T10:18:16.112Z,101963.66
2022-12-05T10:20:49.568Z,101957.59
2022-12-05T10:23:49.345Z,101958.56
2022-12-05T10:26:16.434Z,101953.19
2022-12-05T10:28:52.344Z,101942.69
2022-12-05T10:31:33.236Z,101934.13
2022-12-05T10:34:05.809Z,101940.03
2022-12-05T10:36:33.950Z,101930.59
2022-12-05T10:39:03.800Z,101935.00
2022-12-05T10:41:35.560Z,101934.03
2022-12-05T10:44:06.713Z,101933.22
2022-12-05T10:46:34.734Z,101922.13
2022-12-05T10:49:02.755Z,101911.69
2022-12-05T10:51:36.999Z,101922.38
2022-12-05T10:54:18.185Z,101907.19
2022-12-05T10:56:47.889Z,101903.94
2022-12-05T10:59:19.366Z,101904.00
2022-12-05T11:01:51.144Z,101892.22
2022-12-05T11:04:31.138Z,101895.25
2022-12-05T11:07:01.100Z,101900.38
2022-12-05T11:09:31.262Z,101894.19
2022-12-05T11:12:05.570Z,101898.16
2022-12-05T11:14:36.291Z,101893.97
2022-12-05T11:17:06.449Z,101897.44
2022-12-05T11:19:36.284Z,101889.59
2022-12-05T11:22:08.025Z,101891.38
2022-12-05T11:24:37.326Z,101884.38
2022-12-05T11:27:21.687Z,101880.22
2022-12-05T11:29:58.936Z,101876.81
2022-12-05T11:32:29.287Z,101869.97
2022-12-05T11:35:04.575Z,101868.06
2022-12-05T11:37:37.121Z,101861.97
2022-12-05T11:40:15.316Z,101858.44
2022-12-05T11:42:54.203Z,101862.75
2022-12-05T11:45:45.235Z,101859.47
2022-12-05T11:48:33.538Z,101852.38
2022-12-05T11:51:15.462Z,101854.00
2022-12-05T11:54:02.136Z,101860.16
2022-12-05T11:56:38.420Z,101853.69
2022-12-05T11:59:32.658Z,101856.81
2022-12-05T12:02:09.541Z,101860.03
2022-12-05T12:04:52.699Z,101852.56
2022-12-05T12:07:38.019Z,101826.84
2022-12-05T12:10:25.112Z,101837.75
2022-12-05T12:13:08.477Z,101842.66
2022-12-05T12:15:52.832Z,101835.72
2022-12-05T12:18:46.397Z,101837.53
2022-12-05T12:21:19.688Z,101836.63
2022-12-05T12:24:04.836Z,101836.63
2022-12-05T12:26:43.388Z,101839.06
2022-12-05T12:29:22.188Z,101823.81
2022-12-05T12:32:00.735Z,101795.88
2022-12-05T12:34:42.815Z,101825.66
2022-12-05T12:37:17.568Z,101815.16
2022-12-05T12:39:53.552Z,101827.19
2022-12-05T12:42:25.178Z,101827.03
2022-12-05T12:45:24.843Z,101830.56
2022-12-05T12:48:11.240Z,101831.97
2022-12-05T12:50:44.324Z,101829.59
2022-12-05T12:53:55.422Z,101817.59
2022-12-05T12:56:38.679Z,101817.44
2022-12-05T12:59:23.027Z,101824.59
2022-12-05T13:01:59.080Z,101812.41
2022-12-05T13:04:34.628Z,101814.84
2022-12-05T13:07:11.660Z,101818.28
2022-12-05T13:09:46.155Z,101815.47
2022-12-05T13:12:26.149Z,101819.78
2022-12-05T13:15:00.433Z,101821.31
2022-12-05T13:17:31.637Z,101803.34
2022-12-05T13:20:00.572Z,101802.94
2022-12-05T13:22:30.371Z,101805.25
2022-12-05T13:24:58.600Z,101763.16
2022-12-05T13:27:29.190Z,101799.69
2022-12-05T13:30:00.676Z,101802.31
2022-12-05T13:32:33.119Z,101790.16
2022-12-05T13:35:03.233Z,101786.09
2022-12-05T13:37:51.364Z,101788.59
2022-12-05T13:40:48.489Z,101794.63
2022-12-05T13:43:19.463Z,101786.13
2022-12-05T13:46:02.538Z,101785.47
2022-12-05T13:48:34.196Z,101788.75
2022-12-05T13:51:06.974Z,101788.00
2022-12-05T13:53:40.598Z,101774.94
2022-12-05T13:56:26.850Z,101777.47
2022-12-05T13:58:55.938Z,101786.78
2022-12-05T14:01:53.857Z,101787.56
2022-12-05T14:04:50.887Z,101786.19
2022-12-05T14:07:38.737Z,101789.50
2022-12-05T14:10:10.057Z,101790.16
2022-12-05T14:12:56.290Z,101792.50
2022-12-05T14:15:34.028Z,101799.44
2022-12-05T14:18:06.626Z,101788.19
2022-12-05T14:20:48.611Z,101780.66
2022-12-05T14:23:37.925Z,101777.13
2022-12-05T14:26:19.594Z,101778.81
2022-12-05T14:29:02.483Z,101784.97
2022-12-05T14:31:47.610Z,101783.91
2022-12-05T14:34:24.876Z,101783.78
2022-12-05T14:37:00.094Z,101793.25
2022-12-05T14:39:42.005Z,101785.72
2022-12-05T14:42:25.300Z,101790.66
2022-12-05T14:44:56.362Z,101788.13
2022-12-05T14:47:29.223Z,101782.00
2022-12-05T14:50:04.559Z,101797.13
2022-12-05T14:52:34.527Z,101787.75
2022-12-05T14:55:12.624Z,101793.84
2022-12-05T14:57:49.077Z,101802.38
2022-12-05T15:00:22.592Z,101797.31
2022-12-05T15:02:55.583Z,101793.94
2022-12-05T15:05:27.493Z,101794.84
2022-12-05T15:07:57.459Z,101799.06
2022-12-05T15:10:29.811Z,101797.34
2022-12-05T15:13:02.013Z,101799.31
2022-12-05T15:15:37.507Z,101799.31
2022-12-05T15:18:19.031Z,101797.47
2022-12-05T15:20:55.338Z,101794.94
2022-12-05T15:23:43.364Z,101793.34
2022-12-05T15:29:14.937Z,101772.66
2022-12-05T15:31:47.726Z,101779.38
2022-12-05T15:34:23.530Z,101779.19
2022-12-05T15:36:57.546Z,101768.16
2022-12-05T15:39:28.727Z,101783.53
2022-12-05T15:41:58.109Z,101781.75
2022-12-05T15:44:36.113Z,101781.00
2022-12-05T15:47:06.059Z,101779.31
2022-12-05T15:49:33.999Z,101773.38
2022-12-05T15:52:11.356Z,101776.34
2022-12-05T15:54:40.647Z,101771.34
2022-12-05T15:57:15.838Z,101777.41
2022-12-05T15:59:48.711Z,101760.13
2022-12-05T16:02:21.183Z,101766.66
2022-12-05T16:04:52.670Z,101755.00
2022-12-05T16:07:23.791Z,101759.94
2022-12-05T16:09:52.101Z,101754.06
2022-12-05T16:12:32.176Z,101758.38
2022-12-05T16:15:05.969Z,101764.03
2022-12-05T16:17:41.337Z,101762.00
2022-12-05T16:20:28.239Z,101762.22
2022-12-05T16:22:58.316Z,101759.66
2022-12-05T16:25:27.565Z,101770.03
2022-12-05T16:28:00.764Z,101768.31
2022-12-05T16:30:31.694Z,101767.69
2022-12-05T16:33:05.041Z,101768.34
2022-12-05T16:35:36.808Z,101768.97
2022-12-05T16:38:13.112Z,101765.22
2022-12-05T16:40:42.988Z,101765.91
2022-12-05T16:43:21.539Z,101767.00
2022-12-05T16:45:52.954Z,101766.38
2022-12-05T16:48:24.294Z,101761.19
2022-12-05T16:50:54.341Z,101769.78
2022-12-05T16:53:29.809Z,101758.94
2022-12-05T16:56:00.570Z,101760.63
2022-12-05T16:58:31.731Z,101775.81
2022-12-05T17:01:06.151Z,101769.97
2022-12-05T17:03:35.488Z,101781.22
2022-12-05T17:06:04.006Z,101777.00
2022-12-05T17:08:31.981Z,101780.59
2022-12-05T17:11:02.031Z,101764.25
2022-12-05T17:13:31.300Z,101759.09
2022-12-05T17:15:59.285Z,101770.31
2022-12-05T17:18:31.750Z,101778.00
2022-12-05T17:21:03.185Z,101758.00
2022-12-05T17:23:31.177Z,101778.50
2022-12-05T17:26:00.347Z,101777.75
2022-12-05T17:28:28.288Z,101778.47
2022-12-05T17:30:56.267Z,101770.50
2022-12-05T17:33:24.322Z,101774.56
2022-12-05T17:35:53.681Z,101784.09
2022-12-05T17:38:22.131Z,101780.41
2022-12-05T17:40:50.269Z,101782.16
2022-12-05T17:43:23.228Z,101781.16
2022-12-05T17:45:54.694Z,101779.41
2022-12-05T17:48:22.934Z,101774.97
2022-12-05T17:50:50.997Z,101774.56
2022-12-05T17:53:21.926Z,101775.47
2022-12-05T17:55:49.913Z,101781.53
2022-12-05T17:58:18.368Z,101764.44
2022-12-05T18:00:47.308Z,101774.41
2022-12-05T18:03:17.566Z,101778.63
2022-12-05T18:05:45.974Z,101781.44
2022-12-05T18:08:14.161Z,101776.28
2022-12-05T18:10:44.113Z,101775.16
2022-12-05T18:13:12.584Z,101768.34
2022-12-05T18:15:43.299Z,101778.72
2022-12-05T18:18:15.419Z,101762.34
2022-12-05T18:20:43.379Z,101769.84
2022-12-05T18:23:11.509Z,101776.94
2022-12-05T18:25:39.544Z,101767.19
2022-12-05T18:28:08.929Z,101760.41
2022-12-05T18:30:36.821Z,101772.97
2022-12-05T18:33:04.826Z,101771.66
2022-12-05T18:35:41.646Z,101766.78
2022-12-05T18:38:10.924Z,101754.53
2022-12-05T18:40:39.117Z,101761.09
2022-12-05T18:43:08.449Z,101760.06
2022-12-05T18:45:36.451Z,101761.59
2022-12-05T18:48:23.340Z,101755.41
2022-12-05T18:50:53.410Z,101763.13
2022-12-05T18:53:21.841Z,101759.63
2022-12-05T18:56:21.461Z,101759.34
2022-12-05T18:58:39.897Z,101759.97
2022-12-05T19:01:09.373Z,101767.22
2022-12-05T19:03:38.764Z,101765.16
2022-12-05T19:06:13.495Z,101747.97
2022-12-05T19:08:41.506Z,101749.13
2022-12-05T19:11:09.505Z,101750.16
2022-12-05T19:13:37.524Z,101753.44
2022-12-05T19:16:08.917Z,101752.63
2022-12-05T19:18:37.252Z,101741.66
2022-12-05T19:21:05.340Z,101749.94
2022-12-05T19:23:34.689Z,101751.59
2022-12-05T19:26:03.434Z,101750.78
2022-12-05T19:28:32.851Z,101751.28
2022-12-05T19:31:01.841Z,101743.47
2022-12-05T19:33:34.993Z,101745.06
2022-12-05T19:36:04.448Z,101742.50
2022-12-05T19:38:34.009Z,101746.91
2022-12-05T19:41:02.389Z,101750.34
2022-12-05T19:43:31.185Z,101750.69
2022-12-05T19:45:59.477Z,101741.34
2022-12-05T19:48:27.475Z,101747.13
2022-12-05T19:50:58.651Z,101749.53
2022-12-05T19:53:29.279Z,101740.81
2022-12-05T19:56:01.643Z,101738.09
2022-12-05T19:58:29.633Z,101741.44
2022-12-05T20:00:58.242Z,101742.59
2022-12-05T20:03:26.240Z,101733.25
2022-12-05T20:05:59.818Z,101739.13
2022-12-05T20:08:27.877Z,101733.78
2022-12-05T20:10:56.020Z,101726.84
2022-12-05T20:13:46.005Z,101715.66
2022-12-05T20:16:14.177Z,101731.09
2022-12-05T20:18:42.435Z,101724.28
2022-12-05T20:21:13.794Z,101720.69
2022-12-05T20:23:41.999Z,101717.16
2022-12-05T20:26:11.356Z,101718.88
2022-12-05T20:28:39.961Z,101716.38
2022-12-05T20:31:09.786Z,101715.16
2022-12-05T20:33:38.856Z,101705.78
2022-12-05T20:36:08.321Z,101706.19
2022-12-05T20:38:38.123Z,101706.94
2022-12-05T20:41:08.382Z,101705.72
2022-12-05T20:43:36.351Z,101710.81
2022-12-05T20:46:05.975Z,101711.53
2022-12-05T20:48:35.305Z,101706.38
2022-12-05T20:51:07.334Z,101712.09
2022-12-05T20:53:37.957Z,101713.94
2022-12-05T20:56:07.242Z,101714.69
2022-12-05T20:58:35.413Z,101705.22
2022-12-05T21:01:05.102Z,101698.25
2022-12-05T21:03:33.194Z,101700.19
2022-12-05T21:06:01.278Z,101685.63
2022-12-05T21:08:29.298Z,101698.38
2022-12-05T21:10:58.644Z,101694.09
2022-12-05T21:13:26.602Z,101698.19
2022-12-05T21:15:54.600Z,101691.31
2022-12-05T21:18:22.628Z,101694.78
2022-12-05T21:20:57.796Z,101664.50
2022-12-05T21:23:26.021Z,101691.66
2022-12-05T21:25:54.676Z,101683.16
2022-12-05T21:28:24.031Z,101693.19
2022-12-05T21:30:52.018Z,101695.63
2022-12-05T21:33:23.298Z,101682.06
2022-12-05T21:35:56.091Z,101691.44
2022-12-05T21:38:24.058Z,101685.19
2022-12-05T21:40:51.992Z,101684.41
2022-12-05T21:43:20.595Z,101683.56
2022-12-05T21:45:54.062Z,101684.22
2022-12-05T21:48:23.223Z,101667.19
2022-12-05T21:50:51.692Z,101671.94
2022-12-05T21:53:20.583Z,101664.16
2022-12-05T21:55:48.667Z,101668.22
2022-12-05T21:58:16.677Z,101666.44
2022-12-05T22:00:44.612Z,101663.81
2022-12-05T22:03:15.605Z,101666.47
2022-12-05T22:05:43.617Z,101656.06
2022-12-05T22:08:12.668Z,101660.66
2022-12-05T22:10:40.654Z,101651.78
2022-12-05T22:13:08.625Z,101644.09
2022-12-05T22:15:36.658Z,101649.84
2022-12-05T22:18:04.882Z,101643.75
2022-12-05T22:20:34.200Z,101633.53
2022-12-05T22:23:02.160Z,101638.66
2022-12-05T22:25:30.193Z,101635.19
2022-12-05T22:27:58.193Z,101621.56
2022-12-05T22:30:26.320Z,101626.13
2022-12-05T22:32:54.847Z,101618.34
2022-12-05T22:35:22.771Z,101618.06
2022-12-05T22:37:54.858Z,101609.34
2022-12-05T22:40:22.791Z,101613.03
2022-12-05T22:42:50.749Z,101610.16
2022-12-05T22:45:18.680Z,101613.56
2022-12-05T22:47:46.620Z,101612.88
2022-12-05T22:50:14.598Z,101611.56
2022-12-05T22:52:42.546Z,101606.66
2022-12-05T22:55:11.964Z,101602.63
2022-12-05T22:57:39.897Z,101597.25
2022-12-05T23:00:09.139Z,101587.75
2022-12-05T23:02:37.205Z,101591.19
2022-12-05T23:05:05.661Z,101584.25
2022-12-05T23:07:33.625Z,101577.50
2022-12-05T23:10:02.030Z,101586.88
2022-12-05T23:12:31.497Z,101581.78
2022-12-05T23:14:59.429Z,101576.66
2022-12-05T23:17:27.393Z,101565.69
2022-12-05T23:19:55.341Z,101564.19
2022-12-05T23:22:23.351Z,101566.66
2022-12-05T23:24:51.364Z,101564.88
2022-12-05T23:27:19.462Z,101560.56
2022-12-05T23:29:48.989Z,101554.44
2022-12-05T23:32:16.971Z,101544.41
2022-12-05T23:34:45.058Z,101542.59
2022-12-05T23:37:13.036Z,101557.22
2022-12-05T23:39:40.972Z,101554.63
2022-12-05T23:42:14.921Z,101555.41
2022-12-05T23:44:42.982Z,101558.00
2022-12-05T23:47:12.348Z,101554.69
2022-12-05T23:49:40.315Z,101550.53
2022-12-05T23:52:08.268Z,101557.97
2022-12-05T23:54:36.325Z,101560.50
2022-12-05T23:57:04.436Z,101550.94
2022-12-05T23:59:32.372Z,101558.75
